sensor_id;sensor_type;location;lat;lon;timestamp;P1;durP1;ratioP1;P2;durP2;ratioP2
74241;SDS011;62599;49.146;10.426;2024-02-14T00:00:06;8.05;;;2.40;;
74241;SDS011;62599;49.146;10.426;2024-02-14T00:02:35;2.28;;;1.55;;
74241;SDS011;62599;49.146;10.426;2024-02-14T00:05:01;3.88;;;1.67;;
74241;SDS011;62599;49.146;10.426;2024-02-14T00:07:28;3.55;;;2.80;;
74241;SDS011;62599;49.146;10.426;2024-02-14T00:09:54;2.55;;;1.90;;
74241;SDS011;62599;49.146;10.426;2024-02-14T00:12:19;1.90;;;1.55;;
74241;SDS011;62599;49.146;10.426;2024-02-14T00:14:44;2.47;;;1.80;;
74241;SDS011;62599;49.146;10.426;2024-02-14T00:17:10;3.33;;;2.20;;
74241;SDS011;62599;49.146;10.426;2024-02-14T00:19:35;2.70;;;1.83;;
74241;SDS011;62599;49.146;10.426;2024-02-14T00:22:01;1.65;;;1.45;;
74241;SDS011;62599;49.146;10.426;2024-02-14T00:24:26;5.05;;;2.92;;
74241;SDS011;62599;49.146;10.426;2024-02-14T00:26:54;0.63;;;0.57;;
74241;SDS011;62599;49.146;10.426;2024-02-14T00:29:20;1.75;;;1.30;;
74241;SDS011;62599;49.146;10.426;2024-02-14T00:31:46;2.70;;;2.20;;
74241;SDS011;62599;49.146;10.426;2024-02-14T00:34:11;5.20;;;1.48;;
74241;SDS011;62599;49.146;10.426;2024-02-14T00:36:37;3.90;;;2.83;;
74241;SDS011;62599;49.146;10.426;2024-02-14T00:39:03;2.78;;;1.88;;
74241;SDS011;62599;49.146;10.426;2024-02-14T00:41:28;3.17;;;1.73;;
74241;SDS011;62599;49.146;10.426;2024-02-14T00:43:57;2.70;;;2.10;;
74241;SDS011;62599;49.146;10.426;2024-02-14T00:46:23;0.65;;;0.63;;
74241;SDS011;62599;49.146;10.426;2024-02-14T00:48:48;2.45;;;2.25;;
74241;SDS011;62599;49.146;10.426;2024-02-14T00:51:16;5.33;;;2.30;;
74241;SDS011;62599;49.146;10.426;2024-02-14T00:53:42;3.30;;;2.10;;
74241;SDS011;62599;49.146;10.426;2024-02-14T00:56:10;3.15;;;1.00;;
74241;SDS011;62599;49.146;10.426;2024-02-14T00:58:35;2.65;;;2.28;;
74241;SDS011;62599;49.146;10.426;2024-02-14T01:01:01;2.40;;;1.90;;
74241;SDS011;62599;49.146;10.426;2024-02-14T01:03:27;3.70;;;2.00;;
74241;SDS011;62599;49.146;10.426;2024-02-14T01:05:52;8.03;;;2.83;;
74241;SDS011;62599;49.146;10.426;2024-02-14T01:08:17;3.88;;;2.47;;
74241;SDS011;62599;49.146;10.426;2024-02-14T01:10:46;3.95;;;3.58;;
74241;SDS011;62599;49.146;10.426;2024-02-14T01:13:12;5.50;;;3.63;;
74241;SDS011;62599;49.146;10.426;2024-02-14T01:15:37;4.55;;;3.10;;
74241;SDS011;62599;49.146;10.426;2024-02-14T01:18:03;4.43;;;2.85;;
74241;SDS011;62599;49.146;10.426;2024-02-14T01:20:28;5.50;;;3.33;;
74241;SDS011;62599;49.146;10.426;2024-02-14T01:22:54;3.55;;;2.40;;
74241;SDS011;62599;49.146;10.426;2024-02-14T01:25:19;4.85;;;2.95;;
74241;SDS011;62599;49.146;10.426;2024-02-14T01:27:45;6.00;;;3.73;;
74241;SDS011;62599;49.146;10.426;2024-02-14T01:30:10;9.02;;;3.53;;
74241;SDS011;62599;49.146;10.426;2024-02-14T01:32:36;4.85;;;1.60;;
74241;SDS011;62599;49.146;10.426;2024-02-14T01:35:02;7.43;;;4.07;;
74241;SDS011;62599;49.146;10.426;2024-02-14T01:37:29;3.90;;;2.65;;
74241;SDS011;62599;49.146;10.426;2024-02-14T01:39:54;9.45;;;2.83;;
74241;SDS011;62599;49.146;10.426;2024-02-14T01:42:19;4.10;;;2.45;;
74241;SDS011;62599;49.146;10.426;2024-02-14T01:44:47;3.20;;;2.55;;
74241;SDS011;62599;49.146;10.426;2024-02-14T01:47:13;3.60;;;2.78;;
74241;SDS011;62599;49.146;10.426;2024-02-14T01:49:38;3.60;;;2.55;;
74241;SDS011;62599;49.146;10.426;2024-02-14T01:52:05;3.00;;;2.70;;
74241;SDS011;62599;49.146;10.426;2024-02-14T01:54:31;4.32;;;3.20;;
74241;SDS011;62599;49.146;10.426;2024-02-14T01:56:56;3.75;;;2.88;;
74241;SDS011;62599;49.146;10.426;2024-02-14T01:59:24;2.95;;;2.30;;
74241;SDS011;62599;49.146;10.426;2024-02-14T02:01:49;3.60;;;2.83;;
74241;SDS011;62599;49.146;10.426;2024-02-14T02:04:16;5.43;;;3.22;;
74241;SDS011;62599;49.146;10.426;2024-02-14T02:06:43;3.08;;;1.92;;
74241;SDS011;62599;49.146;10.426;2024-02-14T02:09:08;6.60;;;2.28;;
74241;SDS011;62599;49.146;10.426;2024-02-14T02:11:46;4.65;;;3.10;;
74241;SDS011;62599;49.146;10.426;2024-02-14T02:14:14;7.95;;;2.88;;
74241;SDS011;62599;49.146;10.426;2024-02-14T02:16:39;1.65;;;1.23;;
74241;SDS011;62599;49.146;10.426;2024-02-14T02:19:05;5.38;;;3.03;;
74241;SDS011;62599;49.146;10.426;2024-02-14T02:21:33;4.13;;;3.15;;
74241;SDS011;62599;49.146;10.426;2024-02-14T02:24:00;3.95;;;2.45;;
74241;SDS011;62599;49.146;10.426;2024-02-14T02:26:25;1.60;;;1.48;;
74241;SDS011;62599;49.146;10.426;2024-02-14T02:28:51;3.58;;;2.75;;
74241;SDS011;62599;49.146;10.426;2024-02-14T02:31:16;3.17;;;2.50;;
74241;SDS011;62599;49.146;10.426;2024-02-14T02:33:44;3.63;;;2.13;;
74241;SDS011;62599;49.146;10.426;2024-02-14T02:36:10;4.57;;;3.30;;
74241;SDS011;62599;49.146;10.426;2024-02-14T02:38:35;2.83;;;2.17;;
74241;SDS011;62599;49.146;10.426;2024-02-14T02:41:01;2.50;;;2.28;;
74241;SDS011;62599;49.146;10.426;2024-02-14T02:43:29;4.55;;;3.58;;
74241;SDS011;62599;49.146;10.426;2024-02-14T02:45:55;4.20;;;3.10;;
74241;SDS011;62599;49.146;10.426;2024-02-14T02:48:22;3.05;;;2.55;;
74241;SDS011;62599;49.146;10.426;2024-02-14T02:50:48;4.78;;;3.47;;
74241;SDS011;62599;49.146;10.426;2024-02-14T02:53:14;4.50;;;2.95;;
74241;SDS011;62599;49.146;10.426;2024-02-14T02:55:40;2.95;;;2.47;;
74241;SDS011;62599;49.146;10.426;2024-02-14T02:58:06;11.95;;;3.30;;
74241;SDS011;62599;49.146;10.426;2024-02-14T03:00:32;3.05;;;2.35;;
74241;SDS011;62599;49.146;10.426;2024-02-14T03:02:57;4.05;;;2.88;;
74241;SDS011;62599;49.146;10.426;2024-02-14T03:05:23;3.30;;;2.20;;
74241;SDS011;62599;49.146;10.426;2024-02-14T03:07:49;2.78;;;2.05;;
74241;SDS011;62599;49.146;10.426;2024-02-14T03:10:16;1.80;;;1.60;;
74241;SDS011;62599;49.146;10.426;2024-02-14T03:12:47;2.88;;;1.73;;
74241;SDS011;62599;49.146;10.426;2024-02-14T03:15:14;4.82;;;2.22;;
74241;SDS011;62599;49.146;10.426;2024-02-14T03:17:40;5.40;;;3.13;;
74241;SDS011;62599;49.146;10.426;2024-02-14T03:20:05;8.98;;;2.28;;
74241;SDS011;62599;49.146;10.426;2024-02-14T03:22:35;4.93;;;3.25;;
74241;SDS011;62599;49.146;10.426;2024-02-14T03:25:02;2.88;;;2.58;;
74241;SDS011;62599;49.146;10.426;2024-02-14T03:27:27;6.63;;;3.40;;
74241;SDS011;62599;49.146;10.426;2024-02-14T03:29:53;3.27;;;2.60;;
74241;SDS011;62599;49.146;10.426;2024-02-14T03:32:20;3.25;;;2.35;;
74241;SDS011;62599;49.146;10.426;2024-02-14T03:34:45;2.87;;;2.13;;
74241;SDS011;62599;49.146;10.426;2024-02-14T03:37:11;3.73;;;2.67;;
74241;SDS011;62599;49.146;10.426;2024-02-14T03:39:36;3.93;;;2.80;;
74241;SDS011;62599;49.146;10.426;2024-02-14T03:42:02;3.70;;;2.35;;
74241;SDS011;62599;49.146;10.426;2024-02-14T03:44:32;3.10;;;2.80;;
74241;SDS011;62599;49.146;10.426;2024-02-14T03:46:58;5.13;;;2.58;;
74241;SDS011;62599;49.146;10.426;2024-02-14T03:49:23;8.87;;;5.27;;
74241;SDS011;62599;49.146;10.426;2024-02-14T03:51:50;6.70;;;3.58;;
74241;SDS011;62599;49.146;10.426;2024-02-14T03:54:19;6.10;;;3.63;;
74241;SDS011;62599;49.146;10.426;2024-02-14T03:56:45;3.20;;;2.03;;
74241;SDS011;62599;49.146;10.426;2024-02-14T03:59:10;3.75;;;2.75;;
74241;SDS011;62599;49.146;10.426;2024-02-14T04:01:36;7.15;;;1.98;;
74241;SDS011;62599;49.146;10.426;2024-02-14T04:04:01;11.13;;;4.97;;
74241;SDS011;62599;49.146;10.426;2024-02-14T04:06:27;4.50;;;3.35;;
74241;SDS011;62599;49.146;10.426;2024-02-14T04:08:53;4.22;;;3.17;;
74241;SDS011;62599;49.146;10.426;2024-02-14T04:11:18;3.73;;;2.23;;
74241;SDS011;62599;49.146;10.426;2024-02-14T04:13:43;2.67;;;2.40;;
74241;SDS011;62599;49.146;10.426;2024-02-14T04:16:09;2.63;;;2.43;;
74241;SDS011;62599;49.146;10.426;2024-02-14T04:18:34;2.47;;;1.98;;
74241;SDS011;62599;49.146;10.426;2024-02-14T04:20:59;3.90;;;3.30;;
74241;SDS011;62599;49.146;10.426;2024-02-14T04:23:25;2.88;;;2.15;;
74241;SDS011;62599;49.146;10.426;2024-02-14T04:25:51;2.88;;;2.58;;
74241;SDS011;62599;49.146;10.426;2024-02-14T04:28:16;2.87;;;2.43;;
74241;SDS011;62599;49.146;10.426;2024-02-14T04:30:41;5.38;;;2.65;;
74241;SDS011;62599;49.146;10.426;2024-02-14T04:33:08;2.70;;;2.08;;
74241;SDS011;62599;49.146;10.426;2024-02-14T04:35:34;3.65;;;2.42;;
74241;SDS011;62599;49.146;10.426;2024-02-14T04:37:59;4.53;;;2.80;;
74241;SDS011;62599;49.146;10.426;2024-02-14T04:40:28;3.53;;;2.92;;
74241;SDS011;62599;49.146;10.426;2024-02-14T04:42:54;4.65;;;1.70;;
74241;SDS011;62599;49.146;10.426;2024-02-14T04:45:19;3.25;;;2.10;;
74241;SDS011;62599;49.146;10.426;2024-02-14T04:47:45;6.77;;;2.47;;
74241;SDS011;62599;49.146;10.426;2024-02-14T04:50:10;9.27;;;2.80;;
74241;SDS011;62599;49.146;10.426;2024-02-14T04:52:36;4.93;;;2.03;;
74241;SDS011;62599;49.146;10.426;2024-02-14T04:55:01;5.90;;;3.65;;
74241;SDS011;62599;49.146;10.426;2024-02-14T04:57:27;6.67;;;2.67;;
74241;SDS011;62599;49.146;10.426;2024-02-14T04:59:52;7.27;;;4.03;;
74241;SDS011;62599;49.146;10.426;2024-02-14T05:02:17;4.55;;;3.85;;
74241;SDS011;62599;49.146;10.426;2024-02-14T05:04:44;9.90;;;4.07;;
74241;SDS011;62599;49.146;10.426;2024-02-14T05:07:09;7.55;;;3.70;;
74241;SDS011;62599;49.146;10.426;2024-02-14T05:09:35;3.60;;;2.87;;
74241;SDS011;62599;49.146;10.426;2024-02-14T05:12:00;4.37;;;3.23;;
74241;SDS011;62599;49.146;10.426;2024-02-14T05:14:25;10.87;;;3.67;;
74241;SDS011;62599;49.146;10.426;2024-02-14T05:16:51;3.70;;;3.28;;
74241;SDS011;62599;49.146;10.426;2024-02-14T05:19:16;6.55;;;2.70;;
74241;SDS011;62599;49.146;10.426;2024-02-14T05:21:42;3.33;;;1.58;;
74241;SDS011;62599;49.146;10.426;2024-02-14T05:24:07;5.13;;;3.10;;
74241;SDS011;62599;49.146;10.426;2024-02-14T05:26:33;2.60;;;1.98;;
74241;SDS011;62599;49.146;10.426;2024-02-14T05:28:59;16.48;;;2.83;;
74241;SDS011;62599;49.146;10.426;2024-02-14T05:31:24;4.47;;;3.23;;
74241;SDS011;62599;49.146;10.426;2024-02-14T05:33:50;7.72;;;3.17;;
74241;SDS011;62599;49.146;10.426;2024-02-14T05:36:15;4.20;;;3.63;;
74241;SDS011;62599;49.146;10.426;2024-02-14T05:38:40;7.00;;;1.83;;
74241;SDS011;62599;49.146;10.426;2024-02-14T05:41:06;6.80;;;3.15;;
74241;SDS011;62599;49.146;10.426;2024-02-14T05:43:32;12.45;;;2.75;;
74241;SDS011;62599;49.146;10.426;2024-02-14T05:45:59;5.03;;;3.28;;
74241;SDS011;62599;49.146;10.426;2024-02-14T05:48:25;4.07;;;2.42;;
74241;SDS011;62599;49.146;10.426;2024-02-14T05:50:51;4.57;;;1.88;;
74241;SDS011;62599;49.146;10.426;2024-02-14T05:53:16;3.08;;;2.78;;
74241;SDS011;62599;49.146;10.426;2024-02-14T05:55:42;5.10;;;2.70;;
74241;SDS011;62599;49.146;10.426;2024-02-14T05:58:07;8.00;;;3.03;;
74241;SDS011;62599;49.146;10.426;2024-02-14T06:00:32;2.95;;;2.22;;
74241;SDS011;62599;49.146;10.426;2024-02-14T06:02:58;3.63;;;2.88;;
74241;SDS011;62599;49.146;10.426;2024-02-14T06:05:23;3.10;;;2.23;;
74241;SDS011;62599;49.146;10.426;2024-02-14T06:07:49;3.60;;;2.33;;
74241;SDS011;62599;49.146;10.426;2024-02-14T06:10:15;4.53;;;2.78;;
74241;SDS011;62599;49.146;10.426;2024-02-14T06:12:40;2.83;;;1.83;;
74241;SDS011;62599;49.146;10.426;2024-02-14T06:15:08;4.03;;;2.55;;
74241;SDS011;62599;49.146;10.426;2024-02-14T06:17:33;4.13;;;2.78;;
74241;SDS011;62599;49.146;10.426;2024-02-14T06:19:59;1.55;;;1.35;;
74241;SDS011;62599;49.146;10.426;2024-02-14T06:22:25;4.00;;;2.63;;
74241;SDS011;62599;49.146;10.426;2024-02-14T06:24:50;5.90;;;2.63;;
74241;SDS011;62599;49.146;10.426;2024-02-14T06:27:16;12.70;;;2.67;;
74241;SDS011;62599;49.146;10.426;2024-02-14T06:29:42;3.13;;;2.67;;
74241;SDS011;62599;49.146;10.426;2024-02-14T06:32:07;2.50;;;1.60;;
74241;SDS011;62599;49.146;10.426;2024-02-14T06:34:33;4.05;;;2.40;;
74241;SDS011;62599;49.146;10.426;2024-02-14T06:36:58;5.63;;;2.93;;
74241;SDS011;62599;49.146;10.426;2024-02-14T06:39:24;1.97;;;1.60;;
74241;SDS011;62599;49.146;10.426;2024-02-14T06:41:49;2.17;;;1.77;;
74241;SDS011;62599;49.146;10.426;2024-02-14T06:44:14;2.22;;;2.00;;
74241;SDS011;62599;49.146;10.426;2024-02-14T06:46:40;3.63;;;3.00;;
74241;SDS011;62599;49.146;10.426;2024-02-14T06:49:06;3.08;;;2.78;;
74241;SDS011;62599;49.146;10.426;2024-02-14T06:51:32;3.53;;;1.90;;
74241;SDS011;62599;49.146;10.426;2024-02-14T06:53:58;5.43;;;3.22;;
74241;SDS011;62599;49.146;10.426;2024-02-14T06:56:23;3.85;;;2.28;;
74241;SDS011;62599;49.146;10.426;2024-02-14T06:58:49;3.27;;;2.07;;
74241;SDS011;62599;49.146;10.426;2024-02-14T07:01:24;2.50;;;1.88;;
74241;SDS011;62599;49.146;10.426;2024-02-14T07:03:50;6.10;;;3.15;;
74241;SDS011;62599;49.146;10.426;2024-02-14T07:06:16;3.25;;;2.63;;
74241;SDS011;62599;49.146;10.426;2024-02-14T07:08:42;2.97;;;2.67;;
74241;SDS011;62599;49.146;10.426;2024-02-14T07:11:07;4.75;;;2.95;;
74241;SDS011;62599;49.146;10.426;2024-02-14T07:13:33;6.10;;;3.58;;
74241;SDS011;62599;49.146;10.426;2024-02-14T07:15:58;6.00;;;2.37;;
74241;SDS011;62599;49.146;10.426;2024-02-14T07:18:24;2.60;;;1.95;;
74241;SDS011;62599;49.146;10.426;2024-02-14T07:20:49;5.63;;;2.60;;
74241;SDS011;62599;49.146;10.426;2024-02-14T07:23:15;3.88;;;3.08;;
74241;SDS011;62599;49.146;10.426;2024-02-14T07:25:41;2.40;;;2.17;;
74241;SDS011;62599;49.146;10.426;2024-02-14T07:28:06;3.90;;;2.58;;
74241;SDS011;62599;49.146;10.426;2024-02-14T07:30:31;3.10;;;2.17;;
74241;SDS011;62599;49.146;10.426;2024-02-14T07:32:57;3.90;;;2.87;;
74241;SDS011;62599;49.146;10.426;2024-02-14T07:35:28;3.47;;;2.13;;
74241;SDS011;62599;49.146;10.426;2024-02-14T07:37:54;6.55;;;2.83;;
74241;SDS011;62599;49.146;10.426;2024-02-14T07:40:20;5.20;;;2.28;;
74241;SDS011;62599;49.146;10.426;2024-02-14T07:42:46;4.78;;;2.53;;
74241;SDS011;62599;49.146;10.426;2024-02-14T07:45:11;4.88;;;2.33;;
74241;SDS011;62599;49.146;10.426;2024-02-14T07:47:37;3.22;;;2.42;;
74241;SDS011;62599;49.146;10.426;2024-02-14T07:50:05;5.95;;;2.08;;
74241;SDS011;62599;49.146;10.426;2024-02-14T07:52:31;3.13;;;1.88;;
74241;SDS011;62599;49.146;10.426;2024-02-14T07:54:56;4.38;;;2.30;;
74241;SDS011;62599;49.146;10.426;2024-02-14T07:57:22;2.87;;;2.30;;
74241;SDS011;62599;49.146;10.426;2024-02-14T07:59:48;4.95;;;2.10;;
74241;SDS011;62599;49.146;10.426;2024-02-14T08:02:14;6.20;;;2.38;;
74241;SDS011;62599;49.146;10.426;2024-02-14T08:04:39;5.65;;;2.60;;
74241;SDS011;62599;49.146;10.426;2024-02-14T08:07:04;7.00;;;2.47;;
74241;SDS011;62599;49.146;10.426;2024-02-14T08:09:30;3.55;;;1.98;;
74241;SDS011;62599;49.146;10.426;2024-02-14T08:11:58;2.20;;;1.57;;
74241;SDS011;62599;49.146;10.426;2024-02-14T08:14:23;10.23;;;2.72;;
74241;SDS011;62599;49.146;10.426;2024-02-14T08:16:48;2.00;;;1.67;;
74241;SDS011;62599;49.146;10.426;2024-02-14T08:19:17;2.45;;;1.67;;
74241;SDS011;62599;49.146;10.426;2024-02-14T08:21:43;2.55;;;1.35;;
74241;SDS011;62599;49.146;10.426;2024-02-14T08:24:12;4.20;;;2.72;;
74241;SDS011;62599;49.146;10.426;2024-02-14T08:26:41;2.50;;;1.52;;
74241;SDS011;62599;49.146;10.426;2024-02-14T08:29:10;2.05;;;1.70;;
74241;SDS011;62599;49.146;10.426;2024-02-14T08:34:06;3.73;;;2.20;;
74241;SDS011;62599;49.146;10.426;2024-02-14T08:36:33;3.38;;;2.22;;
74241;SDS011;62599;49.146;10.426;2024-02-14T08:39:00;6.85;;;2.63;;
74241;SDS011;62599;49.146;10.426;2024-02-14T08:41:26;4.82;;;2.67;;
74241;SDS011;62599;49.146;10.426;2024-02-14T08:43:54;3.23;;;2.13;;
74241;SDS011;62599;49.146;10.426;2024-02-14T08:46:19;6.10;;;2.58;;
74241;SDS011;62599;49.146;10.426;2024-02-14T08:48:45;2.53;;;1.92;;
74241;SDS011;62599;49.146;10.426;2024-02-14T08:51:14;4.50;;;2.35;;
74241;SDS011;62599;49.146;10.426;2024-02-14T08:53:40;2.95;;;1.50;;
74241;SDS011;62599;49.146;10.426;2024-02-14T08:56:09;3.63;;;2.65;;
74241;SDS011;62599;49.146;10.426;2024-02-14T08:58:34;1.80;;;1.57;;
74241;SDS011;62599;49.146;10.426;2024-02-14T09:01:03;7.65;;;2.47;;
74241;SDS011;62599;49.146;10.426;2024-02-14T09:03:30;2.03;;;1.83;;
74241;SDS011;62599;49.146;10.426;2024-02-14T09:05:56;3.10;;;2.25;;
74241;SDS011;62599;49.146;10.426;2024-02-14T09:08:22;2.75;;;1.60;;
74241;SDS011;62599;49.146;10.426;2024-02-14T09:10:49;1.63;;;1.27;;
74241;SDS011;62599;49.146;10.426;2024-02-14T09:13:14;2.83;;;1.13;;
74241;SDS011;62599;49.146;10.426;2024-02-14T09:15:43;2.25;;;1.25;;
74241;SDS011;62599;49.146;10.426;2024-02-14T09:18:08;2.22;;;1.50;;
74241;SDS011;62599;49.146;10.426;2024-02-14T09:20:34;2.15;;;1.75;;
74241;SDS011;62599;49.146;10.426;2024-02-14T09:22:59;3.13;;;1.98;;
74241;SDS011;62599;49.146;10.426;2024-02-14T09:25:25;4.10;;;1.98;;
74241;SDS011;62599;49.146;10.426;2024-02-14T09:27:50;3.33;;;2.15;;
74241;SDS011;62599;49.146;10.426;2024-02-14T09:30:19;2.10;;;1.23;;
74241;SDS011;62599;49.146;10.426;2024-02-14T09:32:45;3.67;;;1.85;;
74241;SDS011;62599;49.146;10.426;2024-02-14T09:35:10;1.98;;;1.27;;
74241;SDS011;62599;49.146;10.426;2024-02-14T09:37:36;6.17;;;1.70;;
74241;SDS011;62599;49.146;10.426;2024-02-14T09:40:06;4.55;;;1.95;;
74241;SDS011;62599;49.146;10.426;2024-02-14T09:42:41;5.45;;;1.77;;
74241;SDS011;62599;49.146;10.426;2024-02-14T09:45:10;2.80;;;1.67;;
74241;SDS011;62599;49.146;10.426;2024-02-14T09:47:36;1.88;;;1.15;;
74241;SDS011;62599;49.146;10.426;2024-02-14T09:50:07;3.65;;;0.82;;
74241;SDS011;62599;49.146;10.426;2024-02-14T09:52:33;2.20;;;1.25;;
74241;SDS011;62599;49.146;10.426;2024-02-14T09:54:58;4.82;;;1.15;;
74241;SDS011;62599;49.146;10.426;2024-02-14T09:57:27;1.38;;;0.70;;
74241;SDS011;62599;49.146;10.426;2024-02-14T09:59:56;5.05;;;0.98;;
74241;SDS011;62599;49.146;10.426;2024-02-14T10:02:24;3.55;;;0.82;;
74241;SDS011;62599;49.146;10.426;2024-02-14T10:04:50;1.17;;;0.90;;
74241;SDS011;62599;49.146;10.426;2024-02-14T10:07:15;1.60;;;0.98;;
74241;SDS011;62599;49.146;10.426;2024-02-14T10:09:41;4.30;;;1.33;;
74241;SDS011;62599;49.146;10.426;2024-02-14T10:12:07;1.45;;;1.05;;
74241;SDS011;62599;49.146;10.426;2024-02-14T10:14:36;1.98;;;1.05;;
74241;SDS011;62599;49.146;10.426;2024-02-14T10:17:05;1.20;;;0.98;;
74241;SDS011;62599;49.146;10.426;2024-02-14T10:19:31;2.22;;;1.00;;
74241;SDS011;62599;49.146;10.426;2024-02-14T10:21:57;1.63;;;0.90;;
74241;SDS011;62599;49.146;10.426;2024-02-14T10:24:29;2.67;;;1.00;;
74241;SDS011;62599;49.146;10.426;2024-02-14T10:26:55;1.95;;;0.90;;
74241;SDS011;62599;49.146;10.426;2024-02-14T10:29:22;1.13;;;0.77;;
74241;SDS011;62599;49.146;10.426;2024-02-14T10:31:48;1.15;;;0.52;;
74241;SDS011;62599;49.146;10.426;2024-02-14T10:34:14;2.50;;;1.05;;
74241;SDS011;62599;49.146;10.426;2024-02-14T10:36:40;1.10;;;0.82;;
74241;SDS011;62599;49.146;10.426;2024-02-14T10:39:09;1.63;;;1.00;;
74241;SDS011;62599;49.146;10.426;2024-02-14T10:41:36;1.10;;;0.85;;
74241;SDS011;62599;49.146;10.426;2024-02-14T10:44:05;0.65;;;0.60;;
74241;SDS011;62599;49.146;10.426;2024-02-14T10:46:34;1.23;;;0.75;;
74241;SDS011;62599;49.146;10.426;2024-02-14T10:49:08;1.13;;;0.70;;
74241;SDS011;62599;49.146;10.426;2024-02-14T10:51:36;0.60;;;0.60;;
74241;SDS011;62599;49.146;10.426;2024-02-14T10:54:04;1.65;;;0.88;;
74241;SDS011;62599;49.146;10.426;2024-02-14T10:56:53;1.50;;;0.73;;
74241;SDS011;62599;49.146;10.426;2024-02-14T10:59:26;2.63;;;0.70;;
74241;SDS011;62599;49.146;10.426;2024-02-14T11:01:56;0.65;;;0.55;;
74241;SDS011;62599;49.146;10.426;2024-02-14T11:04:22;2.40;;;0.80;;
74241;SDS011;62599;49.146;10.426;2024-02-14T11:06:53;2.25;;;0.80;;
74241;SDS011;62599;49.146;10.426;2024-02-14T11:09:33;3.60;;;0.75;;
74241;SDS011;62599;49.146;10.426;2024-02-14T11:12:01;0.73;;;0.60;;
74241;SDS011;62599;49.146;10.426;2024-02-14T11:14:34;4.85;;;1.00;;
74241;SDS011;62599;49.146;10.426;2024-02-14T11:17:04;0.80;;;0.68;;
74241;SDS011;62599;49.146;10.426;2024-02-14T11:19:34;2.80;;;0.55;;
74241;SDS011;62599;49.146;10.426;2024-02-14T11:22:20;1.77;;;0.93;;
74241;SDS011;62599;49.146;10.426;2024-02-14T11:24:51;4.30;;;0.82;;
74241;SDS011;62599;49.146;10.426;2024-02-14T11:27:17;3.03;;;0.63;;
74241;SDS011;62599;49.146;10.426;2024-02-14T11:29:51;1.35;;;1.02;;
74241;SDS011;62599;49.146;10.426;2024-02-14T11:32:18;1.27;;;1.05;;
74241;SDS011;62599;49.146;10.426;2024-02-14T11:34:52;2.30;;;1.20;;
74241;SDS011;62599;49.146;10.426;2024-02-14T11:37:27;0.80;;;0.80;;
74241;SDS011;62599;49.146;10.426;2024-02-14T11:39:56;1.65;;;1.00;;
74241;SDS011;62599;49.146;10.426;2024-02-14T11:42:23;4.45;;;0.80;;
74241;SDS011;62599;49.146;10.426;2024-02-14T11:44:48;0.68;;;0.68;;
74241;SDS011;62599;49.146;10.426;2024-02-14T11:47:14;1.13;;;1.02;;
74241;SDS011;62599;49.146;10.426;2024-02-14T11:49:40;1.50;;;1.05;;
74241;SDS011;62599;49.146;10.426;2024-02-14T11:52:09;1.23;;;0.90;;
74241;SDS011;62599;49.146;10.426;2024-02-14T11:54:34;1.17;;;0.63;;
74241;SDS011;62599;49.146;10.426;2024-02-14T11:57:00;2.75;;;1.63;;
74241;SDS011;62599;49.146;10.426;2024-02-14T11:59:25;0.97;;;0.80;;
74241;SDS011;62599;49.146;10.426;2024-02-14T12:01:51;1.10;;;1.02;;
74241;SDS011;62599;49.146;10.426;2024-02-14T12:04:17;1.45;;;0.88;;
74241;SDS011;62599;49.146;10.426;2024-02-14T12:06:43;0.60;;;0.55;;
74241;SDS011;62599;49.146;10.426;2024-02-14T12:09:09;2.25;;;1.13;;
74241;SDS011;62599;49.146;10.426;2024-02-14T12:11:38;1.60;;;0.93;;
74241;SDS011;62599;49.146;10.426;2024-02-14T12:14:07;2.60;;;0.80;;
74241;SDS011;62599;49.146;10.426;2024-02-14T12:16:35;2.20;;;0.80;;
74241;SDS011;62599;49.146;10.426;2024-02-14T12:19:09;0.77;;;0.57;;
74241;SDS011;62599;49.146;10.426;2024-02-14T12:21:40;1.58;;;0.75;;
74241;SDS011;62599;49.146;10.426;2024-02-14T12:24:08;1.88;;;0.63;;
74241;SDS011;62599;49.146;10.426;2024-02-14T12:26:35;1.42;;;1.08;;
74241;SDS011;62599;49.146;10.426;2024-02-14T12:29:04;0.70;;;0.52;;
74241;SDS011;62599;49.146;10.426;2024-02-14T12:31:32;2.58;;;0.82;;
74241;SDS011;62599;49.146;10.426;2024-02-14T12:33:58;0.75;;;0.75;;
74241;SDS011;62599;49.146;10.426;2024-02-14T12:36:30;0.77;;;0.65;;
74241;SDS011;62599;49.146;10.426;2024-02-14T12:39:03;0.88;;;0.88;;
74241;SDS011;62599;49.146;10.426;2024-02-14T12:41:29;2.45;;;1.23;;
74241;SDS011;62599;49.146;10.426;2024-02-14T12:43:55;0.50;;;0.50;;
74241;SDS011;62599;49.146;10.426;2024-02-14T12:46:21;2.33;;;1.33;;
74241;SDS011;62599;49.146;10.426;2024-02-14T12:48:50;1.13;;;0.75;;
74241;SDS011;62599;49.146;10.426;2024-02-14T12:51:15;1.00;;;0.70;;
74241;SDS011;62599;49.146;10.426;2024-02-14T12:53:41;1.25;;;0.70;;
74241;SDS011;62599;49.146;10.426;2024-02-14T12:56:09;2.60;;;1.00;;
74241;SDS011;62599;49.146;10.426;2024-02-14T12:58:35;0.88;;;0.85;;
74241;SDS011;62599;49.146;10.426;2024-02-14T13:01:02;1.00;;;0.93;;
74241;SDS011;62599;49.146;10.426;2024-02-14T13:03:32;1.17;;;0.65;;
74241;SDS011;62599;49.146;10.426;2024-02-14T13:06:01;0.68;;;0.65;;
74241;SDS011;62599;49.146;10.426;2024-02-14T13:08:26;0.68;;;0.60;;
74241;SDS011;62599;49.146;10.426;2024-02-14T13:10:52;0.70;;;0.70;;
74241;SDS011;62599;49.146;10.426;2024-02-14T13:13:18;0.73;;;0.68;;
74241;SDS011;62599;49.146;10.426;2024-02-14T13:15:43;1.67;;;1.20;;
74241;SDS011;62599;49.146;10.426;2024-02-14T13:18:09;0.77;;;0.75;;
74241;SDS011;62599;49.146;10.426;2024-02-14T13:20:35;1.08;;;0.80;;
74241;SDS011;62599;49.146;10.426;2024-02-14T13:23:02;2.55;;;0.47;;
74241;SDS011;62599;49.146;10.426;2024-02-14T13:25:28;1.10;;;0.77;;
74241;SDS011;62599;49.146;10.426;2024-02-14T13:27:53;3.73;;;1.50;;
74241;SDS011;62599;49.146;10.426;2024-02-14T13:30:20;2.65;;;0.68;;
74241;SDS011;62599;49.146;10.426;2024-02-14T13:32:46;0.60;;;0.60;;
74241;SDS011;62599;49.146;10.426;2024-02-14T13:35:12;1.88;;;0.82;;
74241;SDS011;62599;49.146;10.426;2024-02-14T13:37:38;3.92;;;0.80;;
74241;SDS011;62599;49.146;10.426;2024-02-14T13:40:04;4.78;;;0.75;;
74241;SDS011;62599;49.146;10.426;2024-02-14T13:42:35;2.33;;;1.10;;
74241;SDS011;62599;49.146;10.426;2024-02-14T13:45:02;0.65;;;0.40;;
74241;SDS011;62599;49.146;10.426;2024-02-14T13:47:35;1.67;;;1.00;;
74241;SDS011;62599;49.146;10.426;2024-02-14T13:50:08;1.73;;;0.93;;
74241;SDS011;62599;49.146;10.426;2024-02-14T13:56:31;1.05;;;0.82;;
74241;SDS011;62599;49.146;10.426;2024-02-14T13:59:29;1.52;;;1.00;;
74241;SDS011;62599;49.146;10.426;2024-02-14T14:01:54;4.75;;;1.85;;
74241;SDS011;62599;49.146;10.426;2024-02-14T14:07:51;5.97;;;0.70;;
74241;SDS011;62599;49.146;10.426;2024-02-14T14:10:17;1.92;;;1.25;;
74241;SDS011;62599;49.146;10.426;2024-02-14T14:12:42;1.03;;;0.60;;
74241;SDS011;62599;49.146;10.426;2024-02-14T14:15:07;5.33;;;0.53;;
74241;SDS011;62599;49.146;10.426;2024-02-14T14:17:34;0.88;;;0.68;;
74241;SDS011;62599;49.146;10.426;2024-02-14T14:20:00;4.68;;;0.80;;
74241;SDS011;62599;49.146;10.426;2024-02-14T14:22:25;3.13;;;0.70;;
74241;SDS011;62599;49.146;10.426;2024-02-14T14:24:51;0.95;;;0.85;;
74241;SDS011;62599;49.146;10.426;2024-02-14T14:27:16;3.30;;;0.70;;
74241;SDS011;62599;49.146;10.426;2024-02-14T14:29:44;0.70;;;0.60;;
74241;SDS011;62599;49.146;10.426;2024-02-14T14:32:10;1.88;;;1.10;;
74241;SDS011;62599;49.146;10.426;2024-02-14T14:34:36;1.42;;;0.70;;
74241;SDS011;62599;49.146;10.426;2024-02-14T14:37:02;0.97;;;0.70;;
74241;SDS011;62599;49.146;10.426;2024-02-14T14:39:28;0.57;;;0.50;;